sensor_id;sensor_type;location;lat;lon;timestamp;pressure;altitude;pressure_sealevel;temperature;humidity
13011;BME280;6786;57.632;11.962;2022-08-20T00:00:55;100402.38;;;23.02;79.05
13011;BME280;6786;57.632;11.962;2022-08-20T00:03:29;100403.75;;;23.06;78.84
13011;BME280;6786;57.632;11.962;2022-08-20T00:06:00;100409.97;;;23.06;78.79
13011;BME280;6786;57.632;11.962;2022-08-20T00:08:29;100402.06;;;23.05;78.91
13011;BME280;6786;57.632;11.962;2022-08-20T00:10:58;100404.09;;;23.03;78.77
13011;BME280;6786;57.632;11.962;2022-08-20T00:13:31;100398.38;;;23.06;79.18
13011;BME280;6786;57.632;11.962;2022-08-20T00:16:00;100402.06;;;23.05;79.11
13011;BME280;6786;57.632;11.962;2022-08-20T00:18:28;100409.16;;;23.06;79.04
13011;BME280;6786;57.632;11.962;2022-08-20T00:20:56;100404.75;;;23.05;79.07
13011;BME280;6786;57.632;11.962;2022-08-20T00:23:26;100352.88;;;22.79;78.91
13011;BME280;6786;57.632;11.962;2022-08-20T00:25:54;100400.03;;;23.07;78.83
13011;BME280;6786;57.632;11.962;2022-08-20T00:28:22;100400.03;;;23.07;78.91
13011;BME280;6786;57.632;11.962;2022-08-20T00:30:50;100401.06;;;23.06;78.82
13011;BME280;6786;57.632;11.962;2022-08-20T00:33:20;100409.16;;;23.06;78.62
13011;BME280;6786;57.632;11.962;2022-08-20T00:35:51;100347.16;;;22.66;78.88
13011;BME280;6786;57.632;11.962;2022-08-20T00:38:19;100392.63;;;22.93;78.79
13011;BME280;6786;57.632;11.962;2022-08-20T00:40:51;100378.47;;;22.83;78.84
13011;BME280;6786;57.632;11.962;2022-08-20T00:43:33;100420.75;;;23.06;78.88
13011;BME280;6786;57.632;11.962;2022-08-20T00:46:05;100430.38;;;23.09;78.49
13011;BME280;6786;57.632;11.962;2022-08-20T00:48:36;100429.00;;;23.05;78.86
13011;BME280;6786;57.632;11.962;2022-08-20T00:51:08;100431.53;;;23.06;78.68
13011;BME280;6786;57.632;11.962;2022-08-20T00:53:37;100445.19;;;23.05;79.07
13011;BME280;6786;57.632;11.962;2022-08-20T00:56:07;100438.81;;;23.06;78.99
13011;BME280;6786;57.632;11.962;2022-08-20T00:58:38;100439.78;;;23.05;78.77
13011;BME280;6786;57.632;11.962;2022-08-20T01:01:07;100385.53;;;22.76;78.81
13011;BME280;6786;57.632;11.962;2022-08-20T01:03:36;100436.09;;;23.06;78.98
13011;BME280;6786;57.632;11.962;2022-08-20T01:06:05;100447.72;;;23.06;78.87
13011;BME280;6786;57.632;11.962;2022-08-20T01:08:34;100424.47;;;23.05;78.66
13011;BME280;6786;57.632;11.962;2022-08-20T01:11:03;100430.72;;;23.06;78.72
13011;BME280;6786;57.632;11.962;2022-08-20T01:13:37;100431.53;;;23.06;78.58
13011;BME280;6786;57.632;11.962;2022-08-20T01:16:14;100437.94;;;23.05;78.89
13011;BME280;6786;57.632;11.962;2022-08-20T01:18:44;100430.72;;;23.06;78.55
13011;BME280;6786;57.632;11.962;2022-08-20T01:21:16;100421.94;;;23.04;78.69
13011;BME280;6786;57.632;11.962;2022-08-20T01:23:53;100427.34;;;23.04;78.68
13011;BME280;6786;57.632;11.962;2022-08-20T01:26:27;100422.97;;;23.03;79.06
13011;BME280;6786;57.632;11.962;2022-08-20T01:28:59;100385.91;;;22.81;78.88
13011;BME280;6786;57.632;11.962;2022-08-20T01:31:31;100436.44;;;23.03;78.85
13011;BME280;6786;57.632;11.962;2022-08-20T01:34:01;100391.28;;;22.89;78.67
13011;BME280;6786;57.632;11.962;2022-08-20T01:36:33;100419.25;;;23.04;78.71
13011;BME280;6786;57.632;11.962;2022-08-20T01:39:06;100416.53;;;23.04;78.80
13011;BME280;6786;57.632;11.962;2022-08-20T01:41:46;100416.53;;;23.04;78.55
13011;BME280;6786;57.632;11.962;2022-08-20T01:44:19;100417.56;;;23.03;78.73
13011;BME280;6786;57.632;11.962;2022-08-20T01:46:51;100406.09;;;23.01;78.66
13011;BME280;6786;57.632;11.962;2022-08-20T01:49:25;100407.78;;;23.02;78.99
13011;BME280;6786;57.632;11.962;2022-08-20T01:51:57;100412.34;;;23.01;78.88
13011;BME280;6786;57.632;11.962;2022-08-20T01:54:27;100402.38;;;23.02;78.83
13011;BME280;6786;57.632;11.962;2022-08-20T01:56:58;100391.63;;;22.94;78.69
13011;BME280;6786;57.632;11.962;2022-08-20T01:59:28;100400.03;;;22.99;78.71
13011;BME280;6786;57.632;11.962;2022-08-20T02:01:56;100391.78;;;23.00;78.92
13011;BME280;6786;57.632;11.962;2022-08-20T02:04:25;100354.56;;;22.80;78.98
13011;BME280;6786;57.632;11.962;2022-08-20T02:06:55;100390.78;;;23.01;78.92
13011;BME280;6786;57.632;11.962;2022-08-20T02:09:25;100392.63;;;23.01;78.88
13011;BME280;6786;57.632;11.962;2022-08-20T02:11:56;100386.38;;;23.00;78.69
13011;BME280;6786;57.632;11.962;2022-08-20T02:14:24;100387.91;;;23.03;78.94
13011;BME280;6786;57.632;11.962;2022-08-20T02:16:52;100383.34;;;23.03;78.73
13011;BME280;6786;57.632;11.962;2022-08-20T02:19:28;100369.72;;;22.97;78.52
13011;BME280;6786;57.632;11.962;2022-08-20T02:22:02;100382.53;;;23.03;78.81
13011;BME280;6786;57.632;11.962;2022-08-20T02:24:32;100367.50;;;23.00;78.54
13011;BME280;6786;57.632;11.962;2022-08-20T02:27:02;100374.44;;;23.03;78.72
13011;BME280;6786;57.632;11.962;2022-08-20T02:29:30;100370.03;;;23.02;78.86
13011;BME280;6786;57.632;11.962;2022-08-20T02:31:58;100364.00;;;23.00;78.53
13011;BME280;6786;57.632;11.962;2022-08-20T02:34:46;100355.91;;;23.00;78.52
13011;BME280;6786;57.632;11.962;2022-08-20T02:37:15;100366.34;;;23.03;78.72
13011;BME280;6786;57.632;11.962;2022-08-20T02:39:44;100359.75;;;22.97;78.56
13011;BME280;6786;57.632;11.962;2022-08-20T02:42:13;100356.25;;;22.97;78.71
13011;BME280;6786;57.632;11.962;2022-08-20T02:44:42;100363.81;;;23.01;78.81
13011;BME280;6786;57.632;11.962;2022-08-20T02:47:10;100370.03;;;23.02;78.32
13011;BME280;6786;57.632;11.962;2022-08-20T02:49:38;100373.41;;;23.04;78.80
13011;BME280;6786;57.632;11.962;2022-08-20T02:52:06;100371.41;;;23.06;78.51
13011;BME280;6786;57.632;11.962;2022-08-20T02:54:34;100371.75;;;23.03;78.60
13011;BME280;6786;57.632;11.962;2022-08-20T02:57:03;100339.25;;;22.80;78.62
13011;BME280;6786;57.632;11.962;2022-08-20T02:59:32;100372.56;;;23.03;78.41
13011;BME280;6786;57.632;11.962;2022-08-20T03:02:00;100376.13;;;23.04;78.63
13011;BME280;6786;57.632;11.962;2022-08-20T03:04:28;100319.22;;;22.75;78.47
13011;BME280;6786;57.632;11.962;2022-08-20T03:06:56;100374.59;;;23.01;78.48
13011;BME280;6786;57.632;11.962;2022-08-20T03:09:24;100371.06;;;23.01;78.35
13011;BME280;6786;57.632;11.962;2022-08-20T03:11:52;100373.75;;;23.01;78.67
13011;BME280;6786;57.632;11.962;2022-08-20T03:14:21;100382.88;;;23.00;78.27
13011;BME280;6786;57.632;11.962;2022-08-20T03:16:50;100370.41;;;22.91;78.41
13011;BME280;6786;57.632;11.962;2022-08-20T03:19:18;100319.69;;;22.62;78.50
13011;BME280;6786;57.632;11.962;2022-08-20T03:21:46;100389.94;;;23.01;78.65
13011;BME280;6786;57.632;11.962;2022-08-20T03:24:14;100390.94;;;23.00;78.57
13011;BME280;6786;57.632;11.962;2022-08-20T03:26:42;100380.16;;;22.92;78.39
13011;BME280;6786;57.632;11.962;2022-08-20T03:29:11;100398.69;;;23.03;78.32
13011;BME280;6786;57.632;11.962;2022-08-20T03:31:39;100374.25;;;22.88;78.06
13011;BME280;6786;57.632;11.962;2022-08-20T03:34:08;100402.38;;;23.02;78.39
13011;BME280;6786;57.632;11.962;2022-08-20T03:36:36;100410.63;;;23.00;78.23
13011;BME280;6786;57.632;11.962;2022-08-20T03:39:06;100376.44;;;22.77;78.40
13011;BME280;6786;57.632;11.962;2022-08-20T03:41:38;100419.56;;;23.01;78.42
13011;BME280;6786;57.632;11.962;2022-08-20T03:44:06;100423.94;;;23.02;78.32
13011;BME280;6786;57.632;11.962;2022-08-20T03:46:35;100368.03;;;22.64;78.23
13011;BME280;6786;57.632;11.962;2022-08-20T03:49:04;100421.25;;;23.02;78.24
13011;BME280;6786;57.632;11.962;2022-08-20T03:51:35;100438.13;;;23.04;77.97
13011;BME280;6786;57.632;11.962;2022-08-20T03:54:23;100434.72;;;23.02;78.14
13011;BME280;6786;57.632;11.962;2022-08-20T03:56:57;100416.53;;;22.96;77.90
13011;BME280;6786;57.632;11.962;2022-08-20T03:59:26;100388.06;;;22.77;78.15
13011;BME280;6786;57.632;11.962;2022-08-20T04:01:54;100431.38;;;23.00;78.02
13011;BME280;6786;57.632;11.962;2022-08-20T04:04:22;100394.66;;;22.75;77.95
13011;BME280;6786;57.632;11.962;2022-08-20T04:06:52;100443.84;;;23.01;78.13
13011;BME280;6786;57.632;11.962;2022-08-20T04:09:20;100449.22;;;23.01;78.08
13011;BME280;6786;57.632;11.962;2022-08-20T04:11:48;100449.22;;;23.01;77.84
13011;BME280;6786;57.632;11.962;2022-08-20T04:14:16;100354.50;;;22.48;77.72
13011;BME280;6786;57.632;11.962;2022-08-20T04:16:46;100449.56;;;22.98;78.11
13011;BME280;6786;57.632;11.962;2022-08-20T04:19:14;100455.63;;;23.00;78.05
13011;BME280;6786;57.632;11.962;2022-08-20T04:21:42;100450.75;;;22.95;78.13
13011;BME280;6786;57.632;11.962;2022-08-20T04:24:15;100452.94;;;22.92;78.08
13011;BME280;6786;57.632;11.962;2022-08-20T04:26:58;100456.63;;;22.91;77.81
13011;BME280;6786;57.632;11.962;2022-08-20T04:29:28;100475.66;;;22.97;77.90
13011;BME280;6786;57.632;11.962;2022-08-20T04:31:58;100469.44;;;22.97;77.79
13011;BME280;6786;57.632;11.962;2022-08-20T04:34:32;100469.44;;;22.97;77.78
13011;BME280;6786;57.632;11.962;2022-08-20T04:37:00;100467.41;;;22.99;77.69
13011;BME280;6786;57.632;11.962;2022-08-20T04:39:29;100459.50;;;22.97;77.69
13011;BME280;6786;57.632;11.962;2022-08-20T04:41:58;100461.19;;;22.98;77.78
13011;BME280;6786;57.632;11.962;2022-08-20T04:44:26;100463.22;;;22.96;77.53
13011;BME280;6786;57.632;11.962;2022-08-20T04:46:54;100444.47;;;22.87;77.76
13011;BME280;6786;57.632;11.962;2022-08-20T04:49:23;100454.28;;;22.88;77.87
13011;BME280;6786;57.632;11.962;2022-08-20T04:51:52;100460.34;;;22.98;77.77
13011;BME280;6786;57.632;11.962;2022-08-20T04:54:20;100424.94;;;22.77;77.55
13011;BME280;6786;57.632;11.962;2022-08-20T04:56:50;100450.06;;;22.93;77.44
13011;BME280;6786;57.632;11.962;2022-08-20T04:59:18;100465.72;;;22.98;77.56
13011;BME280;6786;57.632;11.962;2022-08-20T05:01:46;100472.81;;;22.99;77.46
13011;BME280;6786;57.632;11.962;2022-08-20T05:04:14;100469.13;;;23.00;77.40
13011;BME280;6786;57.632;11.962;2022-08-20T05:06:42;100470.78;;;23.01;77.41
13011;BME280;6786;57.632;11.962;2022-08-20T05:09:10;100467.41;;;22.99;77.56
13011;BME280;6786;57.632;11.962;2022-08-20T05:11:38;100440.44;;;22.83;77.32
13011;BME280;6786;57.632;11.962;2022-08-20T05:14:08;100460.88;;;23.01;77.07
13011;BME280;6786;57.632;11.962;2022-08-20T05:16:37;100462.03;;;22.99;77.56
13011;BME280;6786;57.632;11.962;2022-08-20T05:19:08;100464.06;;;22.97;77.18
13011;BME280;6786;57.632;11.962;2022-08-20T05:21:38;100462.34;;;22.96;77.23
13011;BME280;6786;57.632;11.962;2022-08-20T05:24:06;100465.72;;;22.98;77.51
13011;BME280;6786;57.632;11.962;2022-08-20T05:26:35;100467.41;;;22.99;77.20
13011;BME280;6786;57.632;11.962;2022-08-20T05:29:04;100464.06;;;22.97;77.34
13011;BME280;6786;57.632;11.962;2022-08-20T05:31:34;100419.19;;;22.64;77.29
13011;BME280;6786;57.632;11.962;2022-08-20T05:34:06;100466.06;;;22.95;77.44
13011;BME280;6786;57.632;11.962;2022-08-20T05:36:38;100473.13;;;22.96;77.29
13011;BME280;6786;57.632;11.962;2022-08-20T05:39:07;100473.13;;;22.96;77.37
13011;BME280;6786;57.632;11.962;2022-08-20T05:41:36;100473.47;;;22.93;77.25
13011;BME280;6786;57.632;11.962;2022-08-20T05:44:05;100474.84;;;22.97;77.08
13011;BME280;6786;57.632;11.962;2022-08-20T05:46:38;100470.44;;;22.96;76.87
13011;BME280;6786;57.632;11.962;2022-08-20T05:49:06;100478.19;;;22.99;77.09
13011;BME280;6786;57.632;11.962;2022-08-20T05:51:34;100420.22;;;22.63;76.88
13011;BME280;6786;57.632;11.962;2022-08-20T05:54:03;100475.66;;;22.97;76.81
13011;BME280;6786;57.632;11.962;2022-08-20T05:56:32;100474.00;;;22.96;77.09
13011;BME280;6786;57.632;11.962;2022-08-20T05:59:01;100482.94;;;22.97;76.90
13011;BME280;6786;57.632;11.962;2022-08-20T06:01:31;100483.91;;;22.96;77.05
13011;BME280;6786;57.632;11.962;2022-08-20T06:04:01;100489.31;;;22.96;77.13
13011;BME280;6786;57.632;11.962;2022-08-20T06:06:47;100450.72;;;22.71;77.00
13011;BME280;6786;57.632;11.962;2022-08-20T06:09:17;100491.34;;;22.94;76.97
13011;BME280;6786;57.632;11.962;2022-08-20T06:11:58;100457.94;;;22.71;76.98
13011;BME280;6786;57.632;11.962;2022-08-20T06:14:27;100492.16;;;22.94;76.86
13011;BME280;6786;57.632;11.962;2022-08-20T06:17:01;100489.31;;;22.96;77.09
13011;BME280;6786;57.632;11.962;2022-08-20T06:19:31;100472.13;;;22.81;77.15
13011;BME280;6786;57.632;11.962;2022-08-20T06:22:00;100470.09;;;22.75;77.22
13011;BME280;6786;57.632;11.962;2022-08-20T06:24:46;100503.81;;;22.95;76.99
13011;BME280;6786;57.632;11.962;2022-08-20T06:27:15;100493.03;;;22.95;77.30
13011;BME280;6786;57.632;11.962;2022-08-20T06:29:43;100488.28;;;22.89;77.33
13011;BME280;6786;57.632;11.962;2022-08-20T06:32:12;100495.72;;;22.95;77.03
13011;BME280;6786;57.632;11.962;2022-08-20T06:34:42;100502.94;;;22.94;77.18
13011;BME280;6786;57.632;11.962;2022-08-20T06:37:18;100498.41;;;22.95;76.83
13011;BME280;6786;57.632;11.962;2022-08-20T06:39:46;100500.94;;;22.96;76.86
13011;BME280;6786;57.632;11.962;2022-08-20T06:42:15;100488.63;;;22.86;76.99
13011;BME280;6786;57.632;11.962;2022-08-20T06:44:47;100512.91;;;22.94;77.05
13011;BME280;6786;57.632;11.962;2022-08-20T06:47:16;100503.28;;;22.91;76.73
13011;BME280;6786;57.632;11.962;2022-08-20T06:49:45;100505.47;;;22.96;76.72
13011;BME280;6786;57.632;11.962;2022-08-20T06:52:14;100512.91;;;22.94;76.95
13011;BME280;6786;57.632;11.962;2022-08-20T06:54:43;100518.63;;;22.91;76.87
13011;BME280;6786;57.632;11.962;2022-08-20T06:57:11;100518.94;;;22.96;76.52
13011;BME280;6786;57.632;11.962;2022-08-20T06:59:39;100514.59;;;22.95;76.89
13011;BME280;6786;57.632;11.962;2022-08-20T07:02:07;100527.03;;;22.96;76.41
13011;BME280;6786;57.632;11.962;2022-08-20T07:04:35;100518.47;;;22.92;76.49
13011;BME280;6786;57.632;11.962;2022-08-20T07:07:05;100485.22;;;22.68;76.47
13011;BME280;6786;57.632;11.962;2022-08-20T07:09:33;100523.34;;;22.97;76.52
13011;BME280;6786;57.632;11.962;2022-08-20T07:12:01;100537.81;;;22.96;76.24
13011;BME280;6786;57.632;11.962;2022-08-20T07:14:29;100535.81;;;22.98;76.53
13011;BME280;6786;57.632;11.962;2022-08-20T07:16:57;100534.78;;;22.99;76.05
13011;BME280;6786;57.632;11.962;2022-08-20T07:19:25;100537.50;;;22.99;76.33
13011;BME280;6786;57.632;11.962;2022-08-20T07:21:53;100546.59;;;22.98;76.20
13011;BME280;6786;57.632;11.962;2022-08-20T07:24:23;100545.75;;;22.97;76.19
13011;BME280;6786;57.632;11.962;2022-08-20T07:26:58;100551.13;;;22.97;75.81
13011;BME280;6786;57.632;11.962;2022-08-20T07:29:26;100545.91;;;22.96;76.17
13011;BME280;6786;57.632;11.962;2022-08-20T07:32:15;100554.00;;;22.96;76.12
13011;BME280;6786;57.632;11.962;2022-08-20T07:35:06;100554.00;;;22.96;75.76
13011;BME280;6786;57.632;11.962;2022-08-20T07:37:36;100561.09;;;22.97;75.83
13011;BME280;6786;57.632;11.962;2022-08-20T07:40:09;100546.94;;;22.95;75.90
13011;BME280;6786;57.632;11.962;2022-08-20T07:42:38;100550.31;;;22.97;75.75
13011;BME280;6786;57.632;11.962;2022-08-20T07:45:07;100552.31;;;22.95;76.06
13011;BME280;6786;57.632;11.962;2022-08-20T07:47:36;100556.03;;;22.94;75.69
13011;BME280;6786;57.632;11.962;2022-08-20T07:50:05;100555.19;;;22.93;75.70
13011;BME280;6786;57.632;11.962;2022-08-20T07:52:33;100551.47;;;22.94;75.85
13011;BME280;6786;57.632;11.962;2022-08-20T07:55:03;100561.09;;;22.97;75.55
13011;BME280;6786;57.632;11.962;2022-08-20T07:57:33;100519.91;;;22.71;75.54
13011;BME280;6786;57.632;11.962;2022-08-20T08:00:01;100566.50;;;22.97;75.70
13011;BME280;6786;57.632;11.962;2022-08-20T08:02:30;100557.72;;;22.95;75.27
13011;BME280;6786;57.632;11.962;2022-08-20T08:04:58;100569.34;;;22.95;75.69
13011;BME280;6786;57.632;11.962;2022-08-20T08:07:27;100570.16;;;22.96;75.30
13011;BME280;6786;57.632;11.962;2022-08-20T08:09:56;100558.38;;;22.89;75.24
13011;BME280;6786;57.632;11.962;2022-08-20T08:12:27;100571.19;;;22.95;75.59
13011;BME280;6786;57.632;11.962;2022-08-20T08:15:02;100557.34;;;22.82;75.36
13011;BME280;6786;57.632;11.962;2022-08-20T08:17:31;100541.28;;;22.72;75.15
13011;BME280;6786;57.632;11.962;2022-08-20T08:20:00;100570.16;;;22.96;75.35
13011;BME280;6786;57.632;11.962;2022-08-20T08:22:28;100546.88;;;22.79;75.45
13011;BME280;6786;57.632;11.962;2022-08-20T08:24:58;100587.19;;;22.96;75.09
13011;BME280;6786;57.632;11.962;2022-08-20T08:27:28;100593.44;;;22.97;75.34
13011;BME280;6786;57.632;11.962;2022-08-20T08:29:58;100596.13;;;22.97;75.01
13011;BME280;6786;57.632;11.962;2022-08-20T08:32:27;100602.84;;;22.93;75.12
13011;BME280;6786;57.632;11.962;2022-08-20T08:34:57;100589.03;;;22.88;75.39
13011;BME280;6786;57.632;11.962;2022-08-20T08:37:30;100595.78;;;22.92;75.30
13011;BME280;6786;57.632;11.962;2022-08-20T08:39:58;100547.88;;;22.70;75.31
13011;BME280;6786;57.632;11.962;2022-08-20T08:42:34;100588.69;;;22.91;75.03
13011;BME280;6786;57.632;11.962;2022-08-20T08:45:09;100593.94;;;22.92;75.18
13011;BME280;6786;57.632;11.962;2022-08-20T08:47:41;100591.56;;;22.89;74.98
13011;BME280;6786;57.632;11.962;2022-08-20T08:50:23;100582.94;;;22.78;74.86
13011;BME280;6786;57.632;11.962;2022-08-20T08:53:17;100596.75;;;22.83;75.07
13011;BME280;6786;57.632;11.962;2022-08-20T08:55:47;100610.25;;;22.91;74.70
13011;BME280;6786;57.632;11.962;2022-08-20T08:58:15;100606.03;;;22.88;74.59
13011;BME280;6786;57.632;11.962;2022-08-20T09:00:43;100607.19;;;22.86;74.58
13011;BME280;6786;57.632;11.962;2022-08-20T09:03:29;100615.66;;;22.91;74.66
13011;BME280;6786;57.632;11.962;2022-08-20T09:05:59;100615.66;;;22.91;74.90
13011;BME280;6786;57.632;11.962;2022-08-20T09:08:31;100625.41;;;22.92;74.73
13011;BME280;6786;57.632;11.962;2022-08-20T09:11:01;100627.25;;;22.91;74.60
13011;BME280;6786;57.632;11.962;2022-08-20T09:13:29;100606.16;;;22.79;74.67
13011;BME280;6786;57.632;11.962;2022-08-20T09:15:57;100627.25;;;22.91;74.76
13011;BME280;6786;57.632;11.962;2022-08-20T09:18:27;100594.31;;;22.64;74.48
13011;BME280;6786;57.632;11.962;2022-08-20T09:20:55;100614.09;;;22.80;74.85
13011;BME280;6786;57.632;11.962;2022-08-20T09:23:23;100648.00;;;22.91;74.67
13011;BME280;6786;57.632;11.962;2022-08-20T09:25:50;100600.72;;;22.63;74.30
13011;BME280;6786;57.632;11.962;2022-08-20T09:28:18;100645.97;;;22.93;74.39
13011;BME280;6786;57.632;11.962;2022-08-20T09:30:46;100640.56;;;22.93;74.22
13011;BME280;6786;57.632;11.962;2022-08-20T09:33:15;100648.66;;;22.93;74.32
13011;BME280;6786;57.632;11.962;2022-08-20T09:35:45;100649.50;;;22.93;74.30
13011;BME280;6786;57.632;11.962;2022-08-20T09:38:13;100649.69;;;22.92;74.47
13011;BME280;6786;57.632;11.962;2022-08-20T09:40:41;100652.22;;;22.93;74.51
13011;BME280;6786;57.632;11.962;2022-08-20T09:43:10;100659.09;;;22.88;74.37
13011;BME280;6786;57.632;11.962;2022-08-20T09:45:38;100611.16;;;22.66;74.43
13011;BME280;6786;57.632;11.962;2022-08-20T09:48:06;100656.75;;;22.93;74.21
13011;BME280;6786;57.632;11.962;2022-08-20T09:50:37;100651.34;;;22.93;74.54
13011;BME280;6786;57.632;11.962;2022-08-20T09:53:08;100644.28;;;22.92;74.34
13011;BME280;6786;57.632;11.962;2022-08-20T09:55:39;100664.16;;;22.91;74.49
13011;BME280;6786;57.632;11.962;2022-08-20T09:58:13;100648.00;;;22.91;74.41
13011;BME280;6786;57.632;11.962;2022-08-20T10:00:43;100653.38;;;22.91;74.08
13011;BME280;6786;57.632;11.962;2022-08-20T10:03:12;100650.00;;;22.89;74.20
13011;BME280;6786;57.632;11.962;2022-08-20T10:05:41;100660.47;;;22.92;73.87
13011;BME280;6786;57.632;11.962;2022-08-20T10:08:11;100650.00;;;22.89;74.45
13011;BME280;6786;57.632;11.962;2022-08-20T10:10:39;100628.69;;;22.70;73.98
13011;BME280;6786;57.632;11.962;2022-08-20T10:13:07;100628.31;;;22.65;74.08
13011;BME280;6786;57.632;11.962;2022-08-20T10:15:38;100633.75;;;22.73;73.91
13011;BME280;6786;57.632;11.962;2022-08-20T10:18:08;100670.22;;;22.93;73.99
13011;BME280;6786;57.632;11.962;2022-08-20T10:20:38;100678.31;;;22.93;74.02
13011;BME280;6786;57.632;11.962;2022-08-20T10:23:06;100682.72;;;22.94;73.91
13011;BME280;6786;57.632;11.962;2022-08-20T10:25:35;100675.78;;;22.91;73.99
13011;BME280;6786;57.632;11.962;2022-08-20T10:28:04;100624.28;;;22.61;74.04
13011;BME280;6786;57.632;11.962;2022-08-20T10:30:32;100683.03;;;22.91;74.16
13011;BME280;6786;57.632;11.962;2022-08-20T10:33:00;100682.03;;;22.92;74.20
13011;BME280;6786;57.632;11.962;2022-08-20T10:35:29;100687.41;;;22.92;73.85
13011;BME280;6786;57.632;11.962;2022-08-20T10:37:57;100638.44;;;22.63;74.01
13011;BME280;6786;57.632;11.962;2022-08-20T10:40:25;100682.03;;;22.92;74.20
13011;BME280;6786;57.632;11.962;2022-08-20T10:42:54;100682.03;;;22.92;74.06
13011;BME280;6786;57.632;11.962;2022-08-20T10:45:22;100637.25;;;22.65;74.04
13011;BME280;6786;57.632;11.962;2022-08-20T10:47:51;100687.41;;;22.92;73.85
13011;BME280;6786;57.632;11.962;2022-08-20T10:50:19;100689.09;;;22.93;73.82
13011;BME280;6786;57.632;11.962;2022-08-20T10:52:47;100653.31;;;22.75;73.90
13011;BME280;6786;57.632;11.962;2022-08-20T10:55:16;100684.56;;;22.93;73.86
13011;BME280;6786;57.632;11.962;2022-08-20T10:57:44;100694.31;;;22.94;73.87
13011;BME280;6786;57.632;11.962;2022-08-20T11:00:16;100687.41;;;22.92;73.41
13011;BME280;6786;57.632;11.962;2022-08-20T11:02:44;100691.44;;;22.88;73.92
13011;BME280;6786;57.632;11.962;2022-08-20T11:05:13;100697.50;;;22.90;73.77
13011;BME280;6786;57.632;11.962;2022-08-20T11:07:42;100701.03;;;22.90;73.59
13011;BME280;6786;57.632;11.962;2022-08-20T11:10:23;100694.81;;;22.90;73.53
13011;BME280;6786;57.632;11.962;2022-08-20T11:12:51;100696.50;;;22.91;73.42
13011;BME280;6786;57.632;11.962;2022-08-20T11:15:20;100701.91;;;22.91;73.84
13011;BME280;6786;57.632;11.962;2022-08-20T11:17:49;100691.75;;;22.85;73.62
13011;BME280;6786;57.632;11.962;2022-08-20T11:20:19;100691.44;;;22.88;73.49
13011;BME280;6786;57.632;11.962;2022-08-20T11:22:49;100700.19;;;22.90;73.33
13011;BME280;6786;57.632;11.962;2022-08-20T11:25:18;100697.81;;;22.87;73.61
13011;BME280;6786;57.632;11.962;2022-08-20T11:27:48;100694.81;;;22.90;73.77
13011;BME280;6786;57.632;11.962;2022-08-20T11:30:22;100710.16;;;22.89;73.39
13011;BME280;6786;57.632;11.962;2022-08-20T11:32:51;100705.59;;;22.90;73.55
13011;BME280;6786;57.632;11.962;2022-08-20T11:35:19;100706.59;;;22.89;73.81
13011;BME280;6786;57.632;11.962;2022-08-20T11:38:09;100707.28;;;22.91;73.79
13011;BME280;6786;57.632;11.962;2022-08-20T11:40:37;100711.81;;;22.90;73.71
13011;BME280;6786;57.632;11.962;2022-08-20T11:43:06;100718.06;;;22.91;73.35
13011;BME280;6786;57.632;11.962;2022-08-20T11:45:46;100714.69;;;22.89;73.64
13011;BME280;6786;57.632;11.962;2022-08-20T11:48:14;100712.69;;;22.91;73.25
13011;BME280;6786;57.632;11.962;2022-08-20T11:50:44;100714.69;;;22.89;73.44
13011;BME280;6786;57.632;11.962;2022-08-20T11:53:12;100683.94;;;22.74;73.32
13011;BME280;6786;57.632;11.962;2022-08-20T11:55:41;100722.59;;;22.90;73.42
13011;BME280;6786;57.632;11.962;2022-08-20T11:58:09;100720.06;;;22.89;73.23
13011;BME280;6786;57.632;11.962;2022-08-20T12:00:37;100735.38;;;22.88;73.46
13011;BME280;6786;57.632;11.962;2022-08-20T12:03:07;100720.06;;;22.89;73.13
13011;BME280;6786;57.632;11.962;2022-08-20T12:05:38;100737.94;;;22.90;73.12
13011;BME280;6786;57.632;11.962;2022-08-20T12:08:07;100728.84;;;22.91;73.20
13011;BME280;6786;57.632;11.962;2022-08-20T12:10:35;100724.59;;;22.88;73.32
13011;BME280;6786;57.632;11.962;2022-08-20T12:13:04;100699.13;;;22.75;73.13
13011;BME280;6786;57.632;11.962;2022-08-20T12:15:32;100699.78;;;22.77;73.17
13011;BME280;6786;57.632;11.962;2022-08-20T12:18:01;100735.22;;;22.90;72.96
13011;BME280;6786;57.632;11.962;2022-08-20T12:20:34;100737.25;;;22.88;72.85
13011;BME280;6786;57.632;11.962;2022-08-20T12:23:02;100739.63;;;22.91;73.08
13011;BME280;6786;57.632;11.962;2022-08-20T12:25:31;100723.88;;;22.78;73.00
13011;BME280;6786;57.632;11.962;2022-08-20T12:27:59;100681.53;;;22.63;72.63
13011;BME280;6786;57.632;11.962;2022-08-20T12:30:27;100728.84;;;22.91;72.78
13011;BME280;6786;57.632;11.962;2022-08-20T12:32:55;100657.13;;;22.47;73.07
13011;BME280;6786;57.632;11.962;2022-08-20T12:35:24;100671.91;;;22.60;72.81
13011;BME280;6786;57.632;11.962;2022-08-20T12:37:53;100723.47;;;22.91;72.95
13011;BME280;6786;57.632;11.962;2022-08-20T12:40:26;100725.16;;;22.92;73.05
13011;BME280;6786;57.632;11.962;2022-08-20T12:42:58;100746.72;;;22.92;72.78
13011;BME280;6786;57.632;11.962;2022-08-20T12:45:27;100691.63;;;22.61;72.83
13011;BME280;6786;57.632;11.962;2022-08-20T12:48:00;100742.66;;;22.88;72.78
13011;BME280;6786;57.632;11.962;2022-08-20T12:50:29;100755.81;;;22.91;72.61
13011;BME280;6786;57.632;11.962;2022-08-20T12:53:03;100736.25;;;22.89;72.63
13011;BME280;6786;57.632;11.962;2022-08-20T12:55:32;100743.00;;;22.93;72.61
13011;BME280;6786;57.632;11.962;2022-08-20T12:58:02;100749.25;;;22.93;72.63
13011;BME280;6786;57.632;11.962;2022-08-20T13:00:33;100748.38;;;22.93;72.47
13011;BME280;6786;57.632;11.962;2022-08-20T13:03:03;100745.03;;;22.91;72.67
13011;BME280;6786;57.632;11.962;2022-08-20T13:05:33;100711.59;;;22.76;72.59